sensor_id;sensor_type;location;lat;lon;timestamp;P1;durP1;ratioP1;P2;durP2;ratioP2
46815;SDS011;32787;53.316;8.670;2022-07-01T00:01:57;10.48;;;6.07;;
46815;SDS011;32787;53.316;8.670;2022-07-01T00:04:22;10.40;;;6.38;;
46815;SDS011;32787;53.316;8.670;2022-07-01T00:06:51;9.68;;;6.03;;
46815;SDS011;32787;53.316;8.670;2022-07-01T00:09:18;11.93;;;6.90;;
46815;SDS011;32787;53.316;8.670;2022-07-01T00:11:43;10.63;;;6.82;;
46815;SDS011;32787;53.316;8.670;2022-07-01T00:14:09;11.85;;;6.97;;
46815;SDS011;32787;53.316;8.670;2022-07-01T00:16:35;11.50;;;7.00;;
46815;SDS011;32787;53.316;8.670;2022-07-01T00:19:01;12.57;;;7.10;;
46815;SDS011;32787;53.316;8.670;2022-07-01T00:21:27;12.32;;;6.72;;
46815;SDS011;32787;53.316;8.670;2022-07-01T00:23:53;12.68;;;7.72;;
46815;SDS011;32787;53.316;8.670;2022-07-01T00:26:18;13.50;;;6.95;;
46815;SDS011;32787;53.316;8.670;2022-07-01T00:28:44;10.23;;;6.88;;
46815;SDS011;32787;53.316;8.670;2022-07-01T00:31:10;11.43;;;7.20;;
46815;SDS011;32787;53.316;8.670;2022-07-01T00:33:35;14.05;;;7.40;;
46815;SDS011;32787;53.316;8.670;2022-07-01T00:36:01;9.95;;;6.85;;
46815;SDS011;32787;53.316;8.670;2022-07-01T00:38:27;11.88;;;8.20;;
46815;SDS011;32787;53.316;8.670;2022-07-01T00:40:52;10.95;;;7.78;;
46815;SDS011;32787;53.316;8.670;2022-07-01T00:43:19;12.55;;;8.98;;
46815;SDS011;32787;53.316;8.670;2022-07-01T00:45:48;13.60;;;9.10;;
46815;SDS011;32787;53.316;8.670;2022-07-01T00:48:14;13.80;;;10.30;;
46815;SDS011;32787;53.316;8.670;2022-07-01T00:50:40;15.90;;;10.23;;
46815;SDS011;32787;53.316;8.670;2022-07-01T00:53:05;14.82;;;10.30;;
46815;SDS011;32787;53.316;8.670;2022-07-01T00:55:31;15.30;;;10.10;;
46815;SDS011;32787;53.316;8.670;2022-07-01T00:57:57;13.38;;;9.45;;
46815;SDS011;32787;53.316;8.670;2022-07-01T01:00:23;14.98;;;9.55;;
46815;SDS011;32787;53.316;8.670;2022-07-01T01:02:49;12.02;;;9.43;;
46815;SDS011;32787;53.316;8.670;2022-07-01T01:05:15;15.05;;;10.95;;
46815;SDS011;32787;53.316;8.670;2022-07-01T01:07:43;14.95;;;11.13;;
46815;SDS011;32787;53.316;8.670;2022-07-01T01:10:09;19.55;;;12.68;;
46815;SDS011;32787;53.316;8.670;2022-07-01T01:12:35;17.35;;;12.88;;
46815;SDS011;32787;53.316;8.670;2022-07-01T01:15:01;13.82;;;11.27;;
46815;SDS011;32787;53.316;8.670;2022-07-01T01:17:27;15.63;;;12.30;;
46815;SDS011;32787;53.316;8.670;2022-07-01T01:19:53;17.00;;;12.90;;
46815;SDS011;32787;53.316;8.670;2022-07-01T01:22:18;20.45;;;14.75;;
46815;SDS011;32787;53.316;8.670;2022-07-01T01:24:45;19.80;;;14.07;;
46815;SDS011;32787;53.316;8.670;2022-07-01T01:29:41;17.33;;;14.05;;
46815;SDS011;32787;53.316;8.670;2022-07-01T01:32:07;19.27;;;14.65;;
46815;SDS011;32787;53.316;8.670;2022-07-01T01:34:34;18.92;;;15.30;;
46815;SDS011;32787;53.316;8.670;2022-07-01T01:37:02;19.27;;;14.93;;
46815;SDS011;32787;53.316;8.670;2022-07-01T01:39:29;20.92;;;15.60;;
46815;SDS011;32787;53.316;8.670;2022-07-01T01:41:54;23.15;;;15.32;;
46815;SDS011;32787;53.316;8.670;2022-07-01T01:44:20;21.02;;;14.77;;
46815;SDS011;32787;53.316;8.670;2022-07-01T01:46:46;22.98;;;12.50;;
46815;SDS011;32787;53.316;8.670;2022-07-01T01:49:12;20.38;;;10.93;;
46815;SDS011;32787;53.316;8.670;2022-07-01T01:51:38;27.65;;;10.48;;
46815;SDS011;32787;53.316;8.670;2022-07-01T01:54:04;25.88;;;9.85;;
46815;SDS011;32787;53.316;8.670;2022-07-01T01:56:30;25.23;;;9.50;;
46815;SDS011;32787;53.316;8.670;2022-07-01T01:58:56;25.63;;;9.32;;
46815;SDS011;32787;53.316;8.670;2022-07-01T02:01:22;22.40;;;8.45;;
46815;SDS011;32787;53.316;8.670;2022-07-01T02:03:50;26.63;;;8.10;;
46815;SDS011;32787;53.316;8.670;2022-07-01T02:06:17;21.80;;;8.45;;
46815;SDS011;32787;53.316;8.670;2022-07-01T02:08:44;27.45;;;7.82;;
46815;SDS011;32787;53.316;8.670;2022-07-01T02:11:10;37.75;;;9.02;;
46815;SDS011;32787;53.316;8.670;2022-07-01T02:13:36;22.90;;;7.90;;
46815;SDS011;32787;53.316;8.670;2022-07-01T02:16:03;23.60;;;7.78;;
46815;SDS011;32787;53.316;8.670;2022-07-01T02:18:29;28.30;;;8.77;;
46815;SDS011;32787;53.316;8.670;2022-07-01T02:20:55;25.92;;;8.32;;
46815;SDS011;32787;53.316;8.670;2022-07-01T02:23:21;32.45;;;8.65;;
46815;SDS011;32787;53.316;8.670;2022-07-01T02:25:47;27.95;;;8.60;;
46815;SDS011;32787;53.316;8.670;2022-07-01T02:28:13;26.20;;;7.80;;
46815;SDS011;32787;53.316;8.670;2022-07-01T02:30:39;26.98;;;8.73;;
46815;SDS011;32787;53.316;8.670;2022-07-01T02:33:05;30.85;;;9.23;;
46815;SDS011;32787;53.316;8.670;2022-07-01T02:35:31;29.58;;;9.18;;
46815;SDS011;32787;53.316;8.670;2022-07-01T02:37:58;35.15;;;7.90;;
46815;SDS011;32787;53.316;8.670;2022-07-01T02:40:23;25.13;;;7.00;;
46815;SDS011;32787;53.316;8.670;2022-07-01T02:42:49;21.80;;;7.00;;
46815;SDS011;32787;53.316;8.670;2022-07-01T02:45:15;17.88;;;5.68;;
46815;SDS011;32787;53.316;8.670;2022-07-01T02:47:40;25.40;;;6.47;;
46815;SDS011;32787;53.316;8.670;2022-07-01T02:50:07;17.00;;;5.05;;
46815;SDS011;32787;53.316;8.670;2022-07-01T02:52:35;18.00;;;4.93;;
46815;SDS011;32787;53.316;8.670;2022-07-01T02:55:01;22.23;;;5.03;;
46815;SDS011;32787;53.316;8.670;2022-07-01T02:57:28;24.20;;;4.97;;
46815;SDS011;32787;53.316;8.670;2022-07-01T02:59:54;18.38;;;4.13;;
46815;SDS011;32787;53.316;8.670;2022-07-01T03:02:20;19.52;;;4.15;;
46815;SDS011;32787;53.316;8.670;2022-07-01T03:04:46;19.70;;;4.30;;
46815;SDS011;32787;53.316;8.670;2022-07-01T03:07:12;17.13;;;3.95;;
46815;SDS011;32787;53.316;8.670;2022-07-01T03:09:39;11.10;;;2.95;;
46815;SDS011;32787;53.316;8.670;2022-07-01T03:12:08;17.98;;;3.78;;
46815;SDS011;32787;53.316;8.670;2022-07-01T03:14:53;16.35;;;3.70;;
46815;SDS011;32787;53.316;8.670;2022-07-01T03:17:44;10.32;;;3.13;;
46815;SDS011;32787;53.316;8.670;2022-07-01T03:20:11;9.85;;;2.40;;
46815;SDS011;32787;53.316;8.670;2022-07-01T03:22:39;12.50;;;2.80;;
46815;SDS011;32787;53.316;8.670;2022-07-01T03:25:06;9.98;;;3.13;;
46815;SDS011;32787;53.316;8.670;2022-07-01T03:27:32;13.52;;;2.40;;
46815;SDS011;32787;53.316;8.670;2022-07-01T03:29:59;12.63;;;2.88;;
46815;SDS011;32787;53.316;8.670;2022-07-01T03:32:25;9.27;;;2.55;;
46815;SDS011;32787;53.316;8.670;2022-07-01T03:34:51;8.43;;;2.10;;
46815;SDS011;32787;53.316;8.670;2022-07-01T03:37:18;8.75;;;2.78;;
46815;SDS011;32787;53.316;8.670;2022-07-01T03:39:45;9.25;;;2.80;;
46815;SDS011;32787;53.316;8.670;2022-07-01T03:42:12;14.18;;;2.38;;
46815;SDS011;32787;53.316;8.670;2022-07-01T03:44:38;12.95;;;2.65;;
46815;SDS011;32787;53.316;8.670;2022-07-01T03:47:04;11.15;;;2.42;;
46815;SDS011;32787;53.316;8.670;2022-07-01T03:49:31;12.07;;;2.60;;
46815;SDS011;32787;53.316;8.670;2022-07-01T03:51:57;9.18;;;2.50;;
46815;SDS011;32787;53.316;8.670;2022-07-01T03:54:23;8.82;;;2.90;;
46815;SDS011;32787;53.316;8.670;2022-07-01T03:56:59;11.93;;;4.00;;
46815;SDS011;32787;53.316;8.670;2022-07-01T03:59:29;11.93;;;3.60;;
46815;SDS011;32787;53.316;8.670;2022-07-01T04:01:56;13.38;;;3.83;;
46815;SDS011;32787;53.316;8.670;2022-07-01T04:04:23;11.85;;;3.28;;
46815;SDS011;32787;53.316;8.670;2022-07-01T04:06:49;8.88;;;3.17;;
46815;SDS011;32787;53.316;8.670;2022-07-01T04:09:16;9.00;;;2.75;;
46815;SDS011;32787;53.316;8.670;2022-07-01T04:11:43;6.18;;;2.05;;
46815;SDS011;32787;53.316;8.670;2022-07-01T04:14:09;5.63;;;2.10;;
46815;SDS011;32787;53.316;8.670;2022-07-01T04:16:36;9.98;;;2.22;;
46815;SDS011;32787;53.316;8.670;2022-07-01T04:19:01;5.00;;;1.90;;
46815;SDS011;32787;53.316;8.670;2022-07-01T04:21:27;7.07;;;1.98;;
46815;SDS011;32787;53.316;8.670;2022-07-01T04:24:11;5.88;;;2.08;;
46815;SDS011;32787;53.316;8.670;2022-07-01T04:26:38;7.18;;;1.75;;
46815;SDS011;32787;53.316;8.670;2022-07-01T04:29:05;4.90;;;1.77;;
46815;SDS011;32787;53.316;8.670;2022-07-01T04:31:32;7.78;;;1.83;;
46815;SDS011;32787;53.316;8.670;2022-07-01T04:33:59;8.93;;;2.40;;
46815;SDS011;32787;53.316;8.670;2022-07-01T04:36:24;8.30;;;2.40;;
46815;SDS011;32787;53.316;8.670;2022-07-01T04:38:50;8.70;;;2.10;;
46815;SDS011;32787;53.316;8.670;2022-07-01T04:41:16;7.40;;;2.33;;
46815;SDS011;32787;53.316;8.670;2022-07-01T04:44:01;4.60;;;1.73;;
46815;SDS011;32787;53.316;8.670;2022-07-01T04:46:27;6.20;;;2.30;;
46815;SDS011;32787;53.316;8.670;2022-07-01T04:48:53;8.50;;;2.13;;
46815;SDS011;32787;53.316;8.670;2022-07-01T04:51:19;7.57;;;2.28;;
46815;SDS011;32787;53.316;8.670;2022-07-01T04:53:45;7.10;;;2.40;;
46815;SDS011;32787;53.316;8.670;2022-07-01T04:56:11;5.82;;;2.60;;
46815;SDS011;32787;53.316;8.670;2022-07-01T04:58:36;6.65;;;2.65;;
46815;SDS011;32787;53.316;8.670;2022-07-01T05:01:02;7.70;;;3.17;;
46815;SDS011;32787;53.316;8.670;2022-07-01T05:03:28;5.88;;;2.58;;
46815;SDS011;32787;53.316;8.670;2022-07-01T05:05:53;5.82;;;2.65;;
46815;SDS011;32787;53.316;8.670;2022-07-01T05:08:19;10.30;;;3.28;;
46815;SDS011;32787;53.316;8.670;2022-07-01T05:10:45;8.13;;;3.40;;
46815;SDS011;32787;53.316;8.670;2022-07-01T05:13:10;10.90;;;3.22;;
46815;SDS011;32787;53.316;8.670;2022-07-01T05:15:36;5.90;;;2.95;;
46815;SDS011;32787;53.316;8.670;2022-07-01T05:18:01;8.45;;;3.65;;
46815;SDS011;32787;53.316;8.670;2022-07-01T05:20:45;7.65;;;3.50;;
46815;SDS011;32787;53.316;8.670;2022-07-01T05:23:30;7.90;;;3.33;;
46815;SDS011;32787;53.316;8.670;2022-07-01T05:25:55;8.48;;;4.45;;
46815;SDS011;32787;53.316;8.670;2022-07-01T05:28:21;7.30;;;3.35;;
46815;SDS011;32787;53.316;8.670;2022-07-01T05:30:47;7.90;;;3.05;;
46815;SDS011;32787;53.316;8.670;2022-07-01T05:33:12;7.85;;;3.22;;
46815;SDS011;32787;53.316;8.670;2022-07-01T05:35:38;8.20;;;3.45;;
46815;SDS011;32787;53.316;8.670;2022-07-01T05:38:03;4.82;;;2.80;;
46815;SDS011;32787;53.316;8.670;2022-07-01T05:40:29;6.75;;;2.85;;
46815;SDS011;32787;53.316;8.670;2022-07-01T05:42:55;5.78;;;3.00;;
46815;SDS011;32787;53.316;8.670;2022-07-01T05:45:20;6.63;;;2.53;;
46815;SDS011;32787;53.316;8.670;2022-07-01T05:47:46;6.00;;;2.90;;
46815;SDS011;32787;53.316;8.670;2022-07-01T05:50:11;4.90;;;2.85;;
46815;SDS011;32787;53.316;8.670;2022-07-01T05:52:37;6.15;;;2.85;;
46815;SDS011;32787;53.316;8.670;2022-07-01T05:55:03;6.25;;;2.97;;
46815;SDS011;32787;53.316;8.670;2022-07-01T05:57:29;10.75;;;3.50;;
46815;SDS011;32787;53.316;8.670;2022-07-01T05:59:54;7.95;;;2.95;;
46815;SDS011;32787;53.316;8.670;2022-07-01T06:02:20;6.32;;;3.03;;
46815;SDS011;32787;53.316;8.670;2022-07-01T06:04:46;6.45;;;3.08;;
46815;SDS011;32787;53.316;8.670;2022-07-01T06:07:11;6.60;;;3.35;;
46815;SDS011;32787;53.316;8.670;2022-07-01T06:09:37;9.18;;;3.78;;
46815;SDS011;32787;53.316;8.670;2022-07-01T06:12:03;6.20;;;3.35;;
46815;SDS011;32787;53.316;8.670;2022-07-01T06:14:30;8.25;;;3.53;;
46815;SDS011;32787;53.316;8.670;2022-07-01T06:16:56;6.38;;;3.75;;
46815;SDS011;32787;53.316;8.670;2022-07-01T06:19:22;6.60;;;3.53;;
46815;SDS011;32787;53.316;8.670;2022-07-01T06:21:48;7.35;;;3.75;;
46815;SDS011;32787;53.316;8.670;2022-07-01T06:24:13;8.00;;;3.88;;
46815;SDS011;32787;53.316;8.670;2022-07-01T06:26:39;7.35;;;3.75;;
46815;SDS011;32787;53.316;8.670;2022-07-01T06:29:05;8.13;;;3.90;;
46815;SDS011;32787;53.316;8.670;2022-07-01T06:31:31;9.05;;;4.30;;
46815;SDS011;32787;53.316;8.670;2022-07-01T06:34:00;7.07;;;3.50;;
46815;SDS011;32787;53.316;8.670;2022-07-01T06:36:25;8.57;;;3.63;;
46815;SDS011;32787;53.316;8.670;2022-07-01T06:38:51;6.85;;;3.40;;
46815;SDS011;32787;53.316;8.670;2022-07-01T06:41:17;6.20;;;3.35;;
46815;SDS011;32787;53.316;8.670;2022-07-01T06:43:51;6.65;;;3.22;;
46815;SDS011;32787;53.316;8.670;2022-07-01T06:46:20;7.03;;;3.70;;
46815;SDS011;32787;53.316;8.670;2022-07-01T06:48:46;6.80;;;3.65;;
46815;SDS011;32787;53.316;8.670;2022-07-01T06:51:12;10.00;;;4.00;;
46815;SDS011;32787;53.316;8.670;2022-07-01T06:53:38;7.03;;;3.47;;
46815;SDS011;32787;53.316;8.670;2022-07-01T06:56:04;7.40;;;3.72;;
46815;SDS011;32787;53.316;8.670;2022-07-01T06:58:30;8.27;;;3.53;;
46815;SDS011;32787;53.316;8.670;2022-07-01T07:00:56;5.82;;;3.22;;
46815;SDS011;32787;53.316;8.670;2022-07-01T07:03:22;5.82;;;3.00;;
46815;SDS011;32787;53.316;8.670;2022-07-01T07:05:48;6.90;;;3.35;;
46815;SDS011;32787;53.316;8.670;2022-07-01T07:08:14;7.75;;;3.35;;
46815;SDS011;32787;53.316;8.670;2022-07-01T07:10:39;6.60;;;3.55;;
46815;SDS011;32787;53.316;8.670;2022-07-01T07:13:05;7.50;;;3.75;;
46815;SDS011;32787;53.316;8.670;2022-07-01T07:15:31;7.20;;;3.72;;
46815;SDS011;32787;53.316;8.670;2022-07-01T07:17:56;6.47;;;3.92;;
46815;SDS011;32787;53.316;8.670;2022-07-01T07:20:25;10.23;;;3.92;;
46815;SDS011;32787;53.316;8.670;2022-07-01T07:22:52;9.82;;;4.93;;
46815;SDS011;32787;53.316;8.670;2022-07-01T07:25:18;9.43;;;4.68;;
46815;SDS011;32787;53.316;8.670;2022-07-01T07:27:44;8.98;;;4.90;;
46815;SDS011;32787;53.316;8.670;2022-07-01T07:30:14;9.13;;;5.90;;
46815;SDS011;32787;53.316;8.670;2022-07-01T07:32:41;10.52;;;5.13;;
46815;SDS011;32787;53.316;8.670;2022-07-01T07:35:07;9.52;;;5.68;;
46815;SDS011;32787;53.316;8.670;2022-07-01T07:37:33;11.20;;;5.88;;
46815;SDS011;32787;53.316;8.670;2022-07-01T07:39:59;8.60;;;6.07;;
46815;SDS011;32787;53.316;8.670;2022-07-01T07:42:26;8.43;;;5.65;;
46815;SDS011;32787;53.316;8.670;2022-07-01T07:44:52;8.10;;;5.60;;
46815;SDS011;32787;53.316;8.670;2022-07-01T07:47:18;10.38;;;6.45;;
46815;SDS011;32787;53.316;8.670;2022-07-01T07:49:44;12.25;;;6.68;;
46815;SDS011;32787;53.316;8.670;2022-07-01T07:52:10;13.02;;;6.72;;
46815;SDS011;32787;53.316;8.670;2022-07-01T07:54:35;11.35;;;6.82;;
46815;SDS011;32787;53.316;8.670;2022-07-01T07:57:01;12.43;;;7.25;;
46815;SDS011;32787;53.316;8.670;2022-07-01T07:59:27;10.48;;;6.78;;
46815;SDS011;32787;53.316;8.670;2022-07-01T08:01:52;10.70;;;6.97;;
46815;SDS011;32787;53.316;8.670;2022-07-01T08:04:18;10.77;;;7.15;;
46815;SDS011;32787;53.316;8.670;2022-07-01T08:06:43;12.85;;;8.10;;
46815;SDS011;32787;53.316;8.670;2022-07-01T08:09:09;11.25;;;7.82;;
46815;SDS011;32787;53.316;8.670;2022-07-01T08:11:35;12.48;;;7.25;;
46815;SDS011;32787;53.316;8.670;2022-07-01T08:14:00;11.48;;;6.82;;
46815;SDS011;32787;53.316;8.670;2022-07-01T08:16:26;11.68;;;7.88;;
46815;SDS011;32787;53.316;8.670;2022-07-01T08:18:52;12.98;;;7.90;;
46815;SDS011;32787;53.316;8.670;2022-07-01T08:21:17;12.25;;;8.18;;
46815;SDS011;32787;53.316;8.670;2022-07-01T08:23:43;11.50;;;8.45;;
46815;SDS011;32787;53.316;8.670;2022-07-01T08:26:09;14.10;;;8.93;;
46815;SDS011;32787;53.316;8.670;2022-07-01T08:28:37;13.73;;;8.27;;
46815;SDS011;32787;53.316;8.670;2022-07-01T08:31:03;11.80;;;8.00;;
46815;SDS011;32787;53.316;8.670;2022-07-01T08:33:28;13.07;;;8.48;;
46815;SDS011;32787;53.316;8.670;2022-07-01T08:35:54;14.40;;;9.07;;
46815;SDS011;32787;53.316;8.670;2022-07-01T08:38:20;15.38;;;10.20;;
46815;SDS011;32787;53.316;8.670;2022-07-01T08:40:45;16.80;;;10.27;;
46815;SDS011;32787;53.316;8.670;2022-07-01T08:43:11;17.77;;;11.30;;
46815;SDS011;32787;53.316;8.670;2022-07-01T08:45:37;16.65;;;11.32;;
46815;SDS011;32787;53.316;8.670;2022-07-01T08:48:03;16.02;;;11.85;;
46815;SDS011;32787;53.316;8.670;2022-07-01T08:50:30;18.83;;;13.15;;
46815;SDS011;32787;53.316;8.670;2022-07-01T08:52:56;18.02;;;13.13;;
46815;SDS011;32787;53.316;8.670;2022-07-01T08:55:23;16.48;;;13.35;;
46815;SDS011;32787;53.316;8.670;2022-07-01T08:57:49;17.13;;;14.43;;
46815;SDS011;32787;53.316;8.670;2022-07-01T09:00:15;19.20;;;14.68;;
46815;SDS011;32787;53.316;8.670;2022-07-01T09:02:55;25.35;;;16.83;;
46815;SDS011;32787;53.316;8.670;2022-07-01T09:05:22;21.77;;;17.50;;
46815;SDS011;32787;53.316;8.670;2022-07-01T09:07:54;23.98;;;18.05;;
46815;SDS011;32787;53.316;8.670;2022-07-01T09:10:21;22.20;;;17.83;;
46815;SDS011;32787;53.316;8.670;2022-07-01T09:12:47;24.65;;;17.45;;
46815;SDS011;32787;53.316;8.670;2022-07-01T09:15:20;22.08;;;18.13;;
46815;SDS011;32787;53.316;8.670;2022-07-01T09:17:53;26.70;;;19.08;;
46815;SDS011;32787;53.316;8.670;2022-07-01T09:20:23;27.60;;;19.23;;
46815;SDS011;32787;53.316;8.670;2022-07-01T09:23:00;26.88;;;20.42;;
46815;SDS011;32787;53.316;8.670;2022-07-01T09:25:29;27.30;;;19.98;;
46815;SDS011;32787;53.316;8.670;2022-07-01T09:30:49;27.75;;;21.27;;
46815;SDS011;32787;53.316;8.670;2022-07-01T09:33:20;26.58;;;20.92;;
46815;SDS011;32787;53.316;8.670;2022-07-01T09:35:47;27.42;;;21.42;;
46815;SDS011;32787;53.316;8.670;2022-07-01T09:38:15;26.33;;;20.35;;
46815;SDS011;32787;53.316;8.670;2022-07-01T09:40:46;29.65;;;21.38;;
46815;SDS011;32787;53.316;8.670;2022-07-01T09:43:16;26.88;;;20.92;;
46815;SDS011;32787;53.316;8.670;2022-07-01T09:45:56;27.17;;;21.58;;
46815;SDS011;32787;53.316;8.670;2022-07-01T09:48:42;25.77;;;21.42;;
46815;SDS011;32787;53.316;8.670;2022-07-01T09:51:10;25.77;;;21.05;;
46815;SDS011;32787;53.316;8.670;2022-07-01T09:53:36;25.23;;;19.98;;
46815;SDS011;32787;53.316;8.670;2022-07-01T09:56:02;26.05;;;20.65;;
46815;SDS011;32787;53.316;8.670;2022-07-01T09:58:28;27.60;;;21.10;;
46815;SDS011;32787;53.316;8.670;2022-07-01T10:00:54;27.33;;;22.30;;
46815;SDS011;32787;53.316;8.670;2022-07-01T10:03:20;27.10;;;22.80;;
46815;SDS011;32787;53.316;8.670;2022-07-01T10:05:51;28.15;;;23.02;;
46815;SDS011;32787;53.316;8.670;2022-07-01T10:11:25;30.33;;;22.15;;
46815;SDS011;32787;53.316;8.670;2022-07-01T10:14:08;29.52;;;22.25;;
46815;SDS011;32787;53.316;8.670;2022-07-01T10:16:37;28.38;;;21.65;;
46815;SDS011;32787;53.316;8.670;2022-07-01T10:21:49;26.92;;;20.35;;
46815;SDS011;32787;53.316;8.670;2022-07-01T10:24:17;26.83;;;20.65;;
46815;SDS011;32787;53.316;8.670;2022-07-01T10:26:44;24.23;;;18.90;;
46815;SDS011;32787;53.316;8.670;2022-07-01T10:29:27;24.42;;;18.35;;
46815;SDS011;32787;53.316;8.670;2022-07-01T10:31:58;23.13;;;18.63;;
46815;SDS011;32787;53.316;8.670;2022-07-01T10:34:39;23.60;;;19.88;;
46815;SDS011;32787;53.316;8.670;2022-07-01T10:37:07;24.02;;;19.20;;
46815;SDS011;32787;53.316;8.670;2022-07-01T10:42:18;24.50;;;18.38;;
46815;SDS011;32787;53.316;8.670;2022-07-01T10:45:04;28.38;;;19.35;;
46815;SDS011;32787;53.316;8.670;2022-07-01T10:47:35;24.75;;;18.92;;
46815;SDS011;32787;53.316;8.670;2022-07-01T10:52:34;24.25;;;18.92;;
46815;SDS011;32787;53.316;8.670;2022-07-01T10:55:02;24.50;;;18.95;;
46815;SDS011;32787;53.316;8.670;2022-07-01T10:57:30;25.98;;;19.17;;
46815;SDS011;32787;53.316;8.670;2022-07-01T11:02:24;27.23;;;18.98;;
46815;SDS011;32787;53.316;8.670;2022-07-01T11:04:55;24.80;;;19.60;;
46815;SDS011;32787;53.316;8.670;2022-07-01T11:07:26;24.38;;;18.83;;
46815;SDS011;32787;53.316;8.670;2022-07-01T11:09:53;23.83;;;17.95;;
46815;SDS011;32787;53.316;8.670;2022-07-01T11:12:20;22.30;;;17.60;;
46815;SDS011;32787;53.316;8.670;2022-07-01T11:14:51;19.63;;;15.10;;
46815;SDS011;32787;53.316;8.670;2022-07-01T11:17:17;24.27;;;15.30;;
46815;SDS011;32787;53.316;8.670;2022-07-01T11:19:51;20.08;;;15.13;;
46815;SDS011;32787;53.316;8.670;2022-07-01T11:22:19;20.65;;;14.20;;
46815;SDS011;32787;53.316;8.670;2022-07-01T11:24:46;20.25;;;14.20;;
46815;SDS011;32787;53.316;8.670;2022-07-01T11:27:17;17.80;;;15.15;;
46815;SDS011;32787;53.316;8.670;2022-07-01T11:29:43;19.13;;;15.50;;
46815;SDS011;32787;53.316;8.670;2022-07-01T11:32:08;18.65;;;14.23;;
46815;SDS011;32787;53.316;8.670;2022-07-01T11:34:35;20.98;;;14.25;;
46815;SDS011;32787;53.316;8.670;2022-07-01T11:37:07;19.38;;;14.32;;
46815;SDS011;32787;53.316;8.670;2022-07-01T11:40:09;19.63;;;13.80;;
46815;SDS011;32787;53.316;8.670;2022-07-01T11:42:36;18.52;;;13.10;;
46815;SDS011;32787;53.316;8.670;2022-07-01T11:45:03;19.67;;;13.23;;
46815;SDS011;32787;53.316;8.670;2022-07-01T11:47:30;18.30;;;12.73;;
46815;SDS011;32787;53.316;8.670;2022-07-01T11:49:56;17.60;;;13.52;;
46815;SDS011;32787;53.316;8.670;2022-07-01T11:52:23;15.13;;;11.18;;
46815;SDS011;32787;53.316;8.670;2022-07-01T11:54:52;17.25;;;10.73;;
46815;SDS011;32787;53.316;8.670;2022-07-01T11:57:20;18.08;;;11.85;;
46815;SDS011;32787;53.316;8.670;2022-07-01T11:59:48;17.83;;;12.10;;
46815;SDS011;32787;53.316;8.670;2022-07-01T12:02:16;17.23;;;12.60;;
46815;SDS011;32787;53.316;8.670;2022-07-01T12:04:44;16.20;;;11.32;;
46815;SDS011;32787;53.316;8.670;2022-07-01T12:07:11;15.80;;;11.60;;
46815;SDS011;32787;53.316;8.670;2022-07-01T12:09:38;17.92;;;11.80;;
46815;SDS011;32787;53.316;8.670;2022-07-01T12:12:04;17.50;;;11.65;;
46815;SDS011;32787;53.316;8.670;2022-07-01T12:14:31;12.50;;;9.30;;
46815;SDS011;32787;53.316;8.670;2022-07-01T12:17:05;13.05;;;8.05;;
46815;SDS011;32787;53.316;8.670;2022-07-01T12:22:07;14.38;;;7.75;;
46815;SDS011;32787;53.316;8.670;2022-07-01T12:24:34;11.45;;;8.02;;
46815;SDS011;32787;53.316;8.670;2022-07-01T12:29:28;11.82;;;7.90;;
46815;SDS011;32787;53.316;8.670;2022-07-01T12:32:00;11.57;;;8.35;;
46815;SDS011;32787;53.316;8.670;2022-07-01T12:35:27;11.25;;;7.32;;
46815;SDS011;32787;53.316;8.670;2022-07-01T12:37:28;11.68;;;7.47;;
46815;SDS011;32787;53.316;8.670;2022-07-01T12:39:59;12.15;;;7.65;;
46815;SDS011;32787;53.316;8.670;2022-07-01T12:42:31;12.95;;;6.20;;
46815;SDS011;32787;53.316;8.670;2022-07-01T12:45:05;9.80;;;6.18;;
46815;SDS011;32787;53.316;8.670;2022-07-01T12:47:36;10.43;;;4.85;;
46815;SDS011;32787;53.316;8.670;2022-07-01T12:50:09;11.10;;;5.53;;
46815;SDS011;32787;53.316;8.670;2022-07-01T12:52:35;10.80;;;5.20;;
46815;SDS011;32787;53.316;8.670;2022-07-01T12:55:00;10.07;;;5.03;;
46815;SDS011;32787;53.316;8.670;2022-07-01T12:57:39;9.65;;;6.20;;
46815;SDS011;32787;53.316;8.670;2022-07-01T13:00:04;11.35;;;5.97;;
46815;SDS011;32787;53.316;8.670;2022-07-01T13:02:31;11.55;;;5.88;;
46815;SDS011;32787;53.316;8.670;2022-07-01T13:04:56;12.02;;;5.60;;
46815;SDS011;32787;53.316;8.670;2022-07-01T13:07:22;9.15;;;5.38;;
46815;SDS011;32787;53.316;8.670;2022-07-01T13:09:47;8.38;;;4.25;;
46815;SDS011;32787;53.316;8.670;2022-07-01T13:12:13;8.15;;;5.32;;
46815;SDS011;32787;53.316;8.670;2022-07-01T13:14:39;10.77;;;6.68;;
46815;SDS011;32787;53.316;8.670;2022-07-01T13:17:04;13.57;;;7.38;;
46815;SDS011;32787;53.316;8.670;2022-07-01T13:19:30;9.88;;;6.75;;
46815;SDS011;32787;53.316;8.670;2022-07-01T13:21:57;9.68;;;5.93;;
46815;SDS011;32787;53.316;8.670;2022-07-01T13:24:24;9.63;;;6.35;;
46815;SDS011;32787;53.316;8.670;2022-07-01T13:26:49;8.93;;;5.70;;
46815;SDS011;32787;53.316;8.670;2022-07-01T13:29:15;11.75;;;6.18;;
46815;SDS011;32787;53.316;8.670;2022-07-01T13:31:41;12.75;;;7.38;;
46815;SDS011;32787;53.316;8.670;2022-07-01T13:34:06;10.75;;;7.25;;
46815;SDS011;32787;53.316;8.670;2022-07-01T13:36:32;11.93;;;6.70;;
46815;SDS011;32787;53.316;8.670;2022-07-01T13:38:58;14.30;;;7.00;;
46815;SDS011;32787;53.316;8.670;2022-07-01T13:41:23;9.85;;;5.40;;
46815;SDS011;32787;53.316;8.670;2022-07-01T13:43:49;9.70;;;5.35;;
46815;SDS011;32787;53.316;8.670;2022-07-01T13:46:15;11.55;;;5.93;;
46815;SDS011;32787;53.316;8.670;2022-07-01T13:48:41;12.70;;;6.25;;
46815;SDS011;32787;53.316;8.670;2022-07-01T13:51:06;11.85;;;5.90;;
46815;SDS011;32787;53.316;8.670;2022-07-01T13:53:32;9.02;;;5.32;;
46815;SDS011;32787;53.316;8.670;2022-07-01T13:55:58;11.13;;;6.00;;
46815;SDS011;32787;53.316;8.670;2022-07-01T13:58:23;9.63;;;5.35;;
46815;SDS011;32787;53.316;8.670;2022-07-01T14:00:49;12.93;;;5.88;;
46815;SDS011;32787;53.316;8.670;2022-07-01T14:03:14;9.77;;;5.50;;
46815;SDS011;32787;53.316;8.670;2022-07-01T14:05:40;10.73;;;5.45;;
46815;SDS011;32787;53.316;8.670;2022-07-01T14:08:06;11.10;;;5.03;;
46815;SDS011;32787;53.316;8.670;2022-07-01T14:10:31;8.90;;;4.80;;
46815;SDS011;32787;53.316;8.670;2022-07-01T14:12:59;8.65;;;4.20;;
46815;SDS011;32787;53.316;8.670;2022-07-01T14:15:25;7.35;;;4.40;;
46815;SDS011;32787;53.316;8.670;2022-07-01T14:17:51;10.18;;;4.35;;
46815;SDS011;32787;53.316;8.670;2022-07-01T14:20:16;8.07;;;4.35;;
46815;SDS011;32787;53.316;8.670;2022-07-01T14:22:42;8.25;;;4.45;;
46815;SDS011;32787;53.316;8.670;2022-07-01T14:25:08;8.98;;;4.30;;
46815;SDS011;32787;53.316;8.670;2022-07-01T14:27:33;10.02;;;3.90;;
46815;SDS011;32787;53.316;8.670;2022-07-01T14:29:59;7.30;;;4.15;;
46815;SDS011;32787;53.316;8.670;2022-07-01T14:32:24;9.18;;;3.78;;
46815;SDS011;32787;53.316;8.670;2022-07-01T14:34:54;8.73;;;4.50;;
46815;SDS011;32787;53.316;8.670;2022-07-01T14:37:20;10.52;;;4.30;;
46815;SDS011;32787;53.316;8.670;2022-07-01T14:39:46;8.13;;;4.43;;
46815;SDS011;32787;53.316;8.670;2022-07-01T14:42:15;8.18;;;4.20;;
46815;SDS011;32787;53.316;8.670;2022-07-01T14:44:41;9.88;;;4.38;;
46815;SDS011;32787;53.316;8.670;2022-07-01T14:47:07;8.30;;;4.65;;
46815;SDS011;32787;53.316;8.670;2022-07-01T14:49:32;8.55;;;4.85;;
46815;SDS011;32787;53.316;8.670;2022-07-01T14:52:01;9.65;;;4.38;;
46815;SDS011;32787;53.316;8.670;2022-07-01T14:54:28;9.90;;;4.60;;
46815;SDS011;32787;53.316;8.670;2022-07-01T14:56:53;8.70;;;3.90;;
46815;SDS011;32787;53.316;8.670;2022-07-01T14:59:19;9.68;;;5.07;;
46815;SDS011;32787;53.316;8.670;2022-07-01T15:01:45;7.10;;;3.80;;